createdAt,value
2018-07-28T00:01:18.342Z,94561.91
2018-07-28T00:03:47.619Z,94563.03
2018-07-28T00:06:16.924Z,94557.94
2018-07-28T00:08:46.177Z,94558.75
2018-07-28T00:11:15.534Z,94554.33
2018-07-28T00:13:44.863Z,94552.14
2018-07-28T00:16:14.126Z,94554.24
2018-07-28T00:18:43.434Z,94558.60
2018-07-28T00:21:12.685Z,94547.16
2018-07-28T00:23:41.920Z,94539.96
2018-07-28T00:26:17.850Z,94540.14
2018-07-28T00:28:48.471Z,94542.34
2018-07-28T00:31:18.241Z,94530.67
2018-07-28T00:33:47.645Z,94537.90
2018-07-28T00:36:16.888Z,94537.00
2018-07-28T00:38:46.164Z,94532.95
2018-07-28T01:00:55.515Z,94528.62
2018-07-28T01:03:24.771Z,94516.91
2018-07-28T01:05:54.059Z,94509.12
2018-07-28T01:08:23.365Z,94508.80
2018-07-28T01:10:52.705Z,94508.80
2018-07-28T01:13:21.939Z,94504.13
2018-07-28T01:15:51.224Z,94497.94
2018-07-28T01:18:20.479Z,94500.49
2018-07-28T01:20:49.800Z,94500.03
2018-07-28T01:23:19.031Z,94501.77
2018-07-28T01:25:48.280Z,94500.42
2018-07-28T01:28:17.539Z,94510.24
2018-07-28T01:30:47.027Z,94516.20
2018-07-28T01:33:16.297Z,94506.86
2018-07-28T01:35:45.578Z,94505.27
2018-07-28T01:38:14.874Z,94506.86
2018-07-28T01:40:44.163Z,94502.73
2018-07-28T01:43:13.468Z,94509.05
2018-07-28T01:45:42.733Z,94509.05
2018-07-28T01:48:12.194Z,94502.14
2018-07-28T01:50:41.426Z,94501.33
2018-07-28T01:53:10.699Z,94496.62
2018-07-28T01:55:39.966Z,94500.22
2018-07-28T01:58:09.199Z,94497.69
2018-07-28T02:00:38.506Z,94494.64
2018-07-28T02:03:07.773Z,94496.59
2018-07-28T02:05:37.058Z,94490.59
2018-07-28T02:08:06.534Z,94482.67
2018-07-28T02:10:35.793Z,94489.27
2018-07-28T02:13:05.079Z,94481.36
2018-07-28T02:15:34.332Z,94480.77
2018-07-28T02:18:03.630Z,94482.00
2018-07-28T02:20:32.883Z,94485.87
2018-07-28T02:23:02.187Z,94478.77
2018-07-28T02:25:31.494Z,94476.55
2018-07-28T02:28:00.786Z,94475.57
2018-07-28T02:30:30.045Z,94466.42
2018-07-28T02:32:59.590Z,94468.81
2018-07-28T02:35:28.839Z,94472.09
2018-07-28T02:37:59.015Z,94474.03
2018-07-28T02:40:28.268Z,94466.41
2018-07-28T02:42:57.550Z,94469.17
2018-07-28T02:45:26.829Z,94460.75
2018-07-28T02:47:56.127Z,94461.16
2018-07-28T02:50:25.475Z,94465.53
2018-07-28T02:52:54.762Z,94458.94
2018-07-28T02:55:24.057Z,94462.98
2018-07-28T02:57:53.316Z,94457.92
2018-07-28T03:00:22.650Z,94462.77
2018-07-28T03:02:51.879Z,94461.26
2018-07-28T03:05:21.183Z,94455.58
2018-07-28T03:07:50.500Z,94459.24
2018-07-28T03:10:19.779Z,94456.39
2018-07-28T03:12:49.027Z,94463.12
2018-07-28T03:15:31.222Z,94460.53
2018-07-28T03:18:02.210Z,94456.48
2018-07-28T03:20:32.283Z,94462.30
2018-07-28T03:23:02.367Z,94465.83
2018-07-28T03:25:31.655Z,94464.83
2018-07-28T03:28:00.942Z,94462.81
2018-07-28T03:30:30.207Z,94461.58
2018-07-28T03:33:00.468Z,94471.10
2018-07-28T03:35:29.690Z,94467.27
2018-07-28T03:37:58.953Z,94469.58
2018-07-28T03:40:28.238Z,94456.50
2018-07-28T03:42:57.483Z,94460.98
2018-07-28T03:45:26.800Z,94459.62
2018-07-28T03:47:56.044Z,94468.52
2018-07-28T03:50:25.336Z,94469.44
2018-07-28T03:52:54.588Z,94467.34
2018-07-28T03:55:23.847Z,94468.36
2018-07-28T03:57:52.929Z,94472.42
2018-07-28T04:00:22.188Z,94475.24
2018-07-28T04:02:51.443Z,94477.75
2018-07-28T04:05:20.724Z,94474.16
2018-07-28T04:07:50.052Z,94483.08
2018-07-28T04:10:19.341Z,94479.31
2018-07-28T04:12:48.591Z,94483.80
2018-07-28T04:15:17.839Z,94476.95
2018-07-28T04:17:54.041Z,94481.95
2018-07-28T04:20:24.393Z,94486.59
2018-07-28T04:22:54.017Z,94481.73
2018-07-28T04:25:23.651Z,94484.87
2018-07-28T04:27:52.935Z,94489.92
2018-07-28T04:30:22.220Z,94489.73
2018-07-28T04:32:51.519Z,94488.78
2018-07-28T04:35:20.782Z,94486.11
2018-07-28T04:37:50.019Z,94495.72
2018-07-28T04:40:19.313Z,94491.14
2018-07-28T04:42:48.556Z,94490.95
2018-07-28T04:45:17.842Z,94488.48
2018-07-28T04:47:47.103Z,94489.87
2018-07-28T04:50:16.432Z,94489.92
2018-07-28T04:52:45.674Z,94481.22
2018-07-28T04:55:14.950Z,94481.30
2018-07-28T04:57:44.209Z,94482.70
2018-07-28T05:00:13.479Z,94486.03
2018-07-28T05:02:42.720Z,94492.15
2018-07-28T05:05:11.971Z,94493.82
2018-07-28T05:07:41.677Z,94487.55
2018-07-28T05:10:10.794Z,94486.93
2018-07-28T05:12:40.034Z,94487.53
2018-07-28T05:15:09.326Z,94484.08
2018-07-28T05:17:38.589Z,94479.53
2018-07-28T05:20:07.855Z,94486.22
2018-07-28T05:22:37.097Z,94491.31
2018-07-28T05:25:06.365Z,94483.50
2018-07-28T05:27:35.605Z,94493.88
2018-07-28T05:30:05.564Z,94496.34
2018-07-28T05:32:34.868Z,94497.73
2018-07-28T05:35:04.646Z,94503.33
2018-07-28T05:37:33.923Z,94500.13
2018-07-28T05:40:03.234Z,94498.09
2018-07-28T05:42:32.636Z,94495.85
2018-07-28T05:45:01.862Z,94495.15
2018-07-28T05:47:31.124Z,94494.84
2018-07-28T05:50:01.645Z,94490.66
2018-07-28T05:52:30.946Z,94488.86
2018-07-28T05:55:00.203Z,94488.66
2018-07-28T05:57:29.860Z,94487.52
2018-07-28T05:59:59.115Z,94494.08
2018-07-28T06:02:28.568Z,94499.88
2018-07-28T06:04:58.375Z,94514.56
2018-07-28T06:07:27.657Z,94510.91
2018-07-28T06:09:57.015Z,94511.09
2018-07-28T06:12:26.288Z,94496.27
2018-07-28T06:14:55.547Z,94504.43
2018-07-28T06:17:24.878Z,94499.73
2018-07-28T06:19:54.785Z,94498.78
2018-07-28T06:22:24.020Z,94504.63
2018-07-28T06:24:53.267Z,94500.15
2018-07-28T06:27:22.573Z,94495.05
2018-07-28T06:29:51.840Z,94489.78
2018-07-28T06:32:21.143Z,94491.97
2018-07-28T06:34:50.407Z,94492.87
2018-07-28T06:37:19.637Z,94494.23
2018-07-28T06:39:48.923Z,94497.19
2018-07-28T06:42:18.196Z,94493.31
2018-07-28T06:44:47.495Z,94506.37
2018-07-28T06:47:16.814Z,94495.73
2018-07-28T06:49:46.110Z,94498.18
2018-07-28T06:52:15.460Z,94495.83
2018-07-28T06:54:44.907Z,94497.52
2018-07-28T06:57:14.176Z,94509.22
2018-07-28T06:59:43.442Z,94507.75
2018-07-28T07:02:12.724Z,94508.38
2018-07-28T07:04:42.057Z,94519.37
2018-07-28T07:07:11.303Z,94513.83
2018-07-28T07:09:40.579Z,94512.89
2018-07-28T07:12:09.797Z,94510.84
2018-07-28T07:14:39.065Z,94514.09
2018-07-28T07:17:08.350Z,94509.02
2018-07-28T07:19:37.646Z,94507.38
2018-07-28T07:22:06.993Z,94512.75
2018-07-28T07:24:36.282Z,94517.91
2018-07-28T07:27:05.525Z,94512.07
2018-07-28T07:29:34.786Z,94518.09
2018-07-28T07:32:04.166Z,94515.02
2018-07-28T07:34:33.454Z,94511.66
2018-07-28T07:37:02.738Z,94504.80
2018-07-28T07:39:31.966Z,94510.50
2018-07-28T07:42:01.220Z,94512.16
2018-07-28T07:44:30.856Z,94513.51
2018-07-28T07:47:00.099Z,94506.23
2018-07-28T07:49:29.375Z,94508.34
2018-07-28T07:51:58.696Z,94510.35
2018-07-28T07:54:27.924Z,94514.75
2018-07-28T07:56:57.206Z,94508.39
2018-07-28T07:59:26.491Z,94512.03
2018-07-28T08:01:55.751Z,94517.63
2018-07-28T08:04:24.999Z,94520.20
2018-07-28T08:06:54.244Z,94505.54
2018-07-28T08:09:23.508Z,94505.70
2018-07-28T08:11:52.862Z,94500.67
2018-07-28T08:14:22.158Z,94507.22
2018-07-28T08:16:51.424Z,94506.04
2018-07-28T08:19:20.687Z,94510.22
2018-07-28T08:21:50.014Z,94506.08
2018-07-28T08:24:19.228Z,94504.90
2018-07-28T08:26:48.534Z,94506.63
2018-07-28T08:29:17.734Z,94508.41
2018-07-28T08:31:47.090Z,94511.38
2018-07-28T08:34:16.504Z,94512.61
2018-07-28T08:36:45.846Z,94518.55
2018-07-28T08:39:15.746Z,94522.48
2018-07-28T08:41:45.385Z,94523.72
2018-07-28T08:44:15.047Z,94528.14
2018-07-28T08:46:44.370Z,94534.84
2018-07-28T08:49:13.653Z,94531.61
2018-07-28T08:51:43.878Z,94531.84
2018-07-28T08:54:13.148Z,94531.89
2018-07-28T08:56:42.390Z,94525.91
2018-07-28T08:59:11.655Z,94525.30
2018-07-28T09:01:40.961Z,94531.57
2018-07-28T09:04:10.227Z,94534.77
2018-07-28T09:06:39.549Z,94527.89
2018-07-28T09:09:10.587Z,94527.67
2018-07-28T09:11:39.872Z,94527.17
2018-07-28T09:14:09.809Z,94526.98
2018-07-28T09:16:39.759Z,94523.59
2018-07-28T09:19:09.195Z,94529.45
2018-07-28T09:21:38.495Z,94513.38
2018-07-28T09:24:07.876Z,94524.86
2018-07-28T09:26:37.155Z,94526.88
2018-07-28T09:29:06.410Z,94528.06
2018-07-28T09:31:35.686Z,94525.47
2018-07-28T09:34:04.937Z,94524.49
2018-07-28T09:36:34.249Z,94524.27
2018-07-28T09:39:04.264Z,94529.86
2018-07-28T09:41:33.669Z,94524.45
2018-07-28T09:44:02.913Z,94521.20
2018-07-28T09:46:32.268Z,94528.09
2018-07-28T09:49:01.632Z,94523.03
2018-07-28T09:51:30.910Z,94525.48
2018-07-28T09:54:30.531Z,94523.08
2018-07-28T09:56:59.815Z,94532.77
2018-07-28T09:59:29.059Z,94530.17
2018-07-28T10:01:58.367Z,94531.94
2018-07-28T10:04:27.687Z,94535.22
2018-07-28T10:06:56.962Z,94534.14
2018-07-28T10:09:26.271Z,94540.39
2018-07-28T10:11:55.587Z,94546.24
2018-07-28T10:14:24.803Z,94552.17
2018-07-28T10:16:54.063Z,94544.20
2018-07-28T10:19:23.292Z,94543.22
2018-07-28T10:21:52.578Z,94548.38
2018-07-28T10:24:21.824Z,94550.47
2018-07-28T10:26:51.102Z,94544.73
2018-07-28T10:29:20.348Z,94554.03
2018-07-28T10:31:49.597Z,94553.16
2018-07-28T10:34:18.925Z,94554.45
2018-07-28T10:36:48.292Z,94555.50
2018-07-28T10:39:17.485Z,94555.95
2018-07-28T10:41:48.014Z,94561.72
2018-07-28T10:44:17.282Z,94584.52
2018-07-28T10:46:46.564Z,94594.50
2018-07-28T10:49:15.816Z,94607.53
2018-07-28T10:51:45.103Z,94615.23
2018-07-28T10:54:14.368Z,94620.45
2018-07-28T10:56:43.719Z,94638.42
2018-07-28T10:59:13.043Z,94637.00
2018-07-28T11:01:42.311Z,94635.31
2018-07-28T11:04:11.649Z,94641.98
2018-07-28T11:06:40.962Z,94643.89
2018-07-28T11:09:10.710Z,94647.08
2018-07-28T11:11:39.948Z,94640.03
2018-07-28T11:14:09.260Z,94643.84
2018-07-28T11:16:38.528Z,94639.58
2018-07-28T11:19:08.579Z,94636.72
2018-07-28T11:21:37.877Z,94638.48
2018-07-28T11:24:07.314Z,94638.05
2018-07-28T11:26:36.633Z,94629.25
2018-07-28T11:29:05.965Z,94635.96
2018-07-28T11:31:52.575Z,94635.58
2018-07-28T11:34:38.954Z,94623.77
2018-07-28T11:39:26.070Z,94633.06
2018-07-28T11:42:12.418Z,94631.53
2018-07-28T11:45:21.192Z,94634.69
2018-07-28T11:47:50.463Z,94629.22
2018-07-28T11:50:19.688Z,94626.30
2018-07-28T11:52:48.970Z,94623.70
2018-07-28T11:55:18.240Z,94626.53
2018-07-28T11:57:47.550Z,94623.95
2018-07-28T12:00:16.890Z,94623.77
2018-07-28T12:02:46.179Z,94622.31
2018-07-28T12:05:15.527Z,94628.34
2018-07-28T12:07:44.769Z,94611.94
2018-07-28T12:10:14.094Z,94614.09
2018-07-28T12:12:43.379Z,94606.14
2018-07-28T12:15:12.640Z,94615.42
2018-07-28T12:17:43.180Z,94611.25
2018-07-28T12:20:12.426Z,94617.25
2018-07-28T12:22:41.694Z,94618.75
2018-07-28T12:25:10.952Z,94619.13
2018-07-28T12:27:40.351Z,94617.42
2018-07-28T12:30:11.190Z,94618.83
2018-07-28T12:32:40.658Z,94629.78
2018-07-28T12:35:10.626Z,94629.98
2018-07-28T12:37:39.907Z,94634.25
2018-07-28T12:40:09.286Z,94633.28
2018-07-28T12:42:38.893Z,94635.73
2018-07-28T12:45:08.655Z,94640.08
2018-07-28T12:47:37.976Z,94635.51
2018-07-28T12:50:07.345Z,94644.55
2018-07-28T12:52:36.622Z,94635.80
2018-07-28T12:55:06.225Z,94643.83
2018-07-28T12:57:35.751Z,94637.77
2018-07-28T13:00:05.099Z,94642.53
2018-07-28T13:02:34.399Z,94643.92
2018-07-28T13:05:03.710Z,94645.88
2018-07-28T13:07:33.002Z,94648.16
2018-07-28T13:10:02.266Z,94651.19
2018-07-28T13:12:31.596Z,94649.27
2018-07-28T13:15:00.807Z,94651.66
2018-07-28T13:17:30.049Z,94645.58
2018-07-28T13:19:59.428Z,94647.61
2018-07-28T13:22:28.711Z,94648.66
2018-07-28T13:24:57.977Z,94645.59
2018-07-28T13:27:27.297Z,94647.50
2018-07-28T13:29:56.591Z,94650.25
2018-07-28T13:32:25.900Z,94657.97
2018-07-28T13:34:56.044Z,94664.09
2018-07-28T13:37:25.320Z,94662.89
2018-07-28T13:39:54.629Z,94661.66
2018-07-28T13:42:23.877Z,94664.36
2018-07-28T13:44:53.239Z,94656.35
2018-07-28T13:47:22.581Z,94658.27
2018-07-28T13:49:52.014Z,94659.26
2018-07-28T13:52:21.444Z,94648.55
2018-07-28T13:54:50.892Z,94647.28
2018-07-28T13:57:21.001Z,94648.62
2018-07-28T13:59:50.292Z,94650.20
2018-07-28T14:02:19.892Z,94644.64
2018-07-28T14:04:49.309Z,94632.99
2018-07-28T14:07:18.757Z,94630.03
2018-07-28T14:09:48.007Z,94630.91
2018-07-28T14:12:17.491Z,94620.96
2018-07-28T14:14:46.827Z,94620.42
2018-07-28T14:17:16.177Z,94616.47
2018-07-28T14:19:45.655Z,94623.78
2018-07-28T14:22:15.075Z,94625.83
2018-07-28T14:24:44.361Z,94619.00
2018-07-28T14:27:13.662Z,94628.28
2018-07-28T14:29:43.044Z,94625.89
2018-07-28T14:32:12.360Z,94619.18
2018-07-28T14:34:41.721Z,94623.60
2018-07-28T14:37:11.192Z,94631.28
2018-07-28T14:39:40.689Z,94631.43
2018-07-28T14:42:10.131Z,94630.91
2018-07-28T14:44:39.692Z,94637.00
2018-07-28T14:47:09.365Z,94636.41
2018-07-28T14:49:38.778Z,94631.28
2018-07-28T14:52:08.164Z,94634.31
2018-07-28T14:54:37.484Z,94641.28
2018-07-28T14:57:07.048Z,94643.60
2018-07-28T14:59:36.354Z,94641.00
2018-07-28T15:02:05.729Z,94641.25
2018-07-28T15:04:35.167Z,94659.53
2018-07-28T15:07:04.642Z,94663.57
2018-07-28T15:09:34.021Z,94662.09
2018-07-28T15:12:03.333Z,94664.75
2018-07-28T15:14:32.711Z,94671.41
2018-07-28T15:17:02.075Z,94673.36
2018-07-28T15:19:31.554Z,94676.00
2018-07-28T15:22:00.828Z,94675.04
2018-07-28T15:24:30.098Z,94682.97
2018-07-28T15:26:59.515Z,94690.30
2018-07-28T15:29:29.065Z,94691.62
2018-07-28T15:31:58.383Z,94692.66
2018-07-28T15:34:27.827Z,94700.00
2018-07-28T15:36:57.227Z,94694.66
2018-07-28T15:39:26.556Z,94695.59
2018-07-28T15:41:55.846Z,94692.23
2018-07-28T15:44:25.251Z,94690.70
2018-07-28T15:46:54.591Z,94699.52
2018-07-28T15:49:24.884Z,94695.27
2018-07-28T15:51:54.551Z,94691.95
2018-07-28T15:54:23.923Z,94703.27
2018-07-28T15:56:53.390Z,94696.05
2018-07-28T15:59:22.734Z,94685.83
2018-07-28T16:01:52.040Z,94680.52
2018-07-28T16:04:21.354Z,94686.97
2018-07-28T16:06:50.645Z,94678.93
2018-07-28T16:09:20.006Z,94685.34
2018-07-28T16:11:49.478Z,94688.08
2018-07-28T16:14:19.921Z,94688.17
2018-07-28T16:16:49.180Z,94683.31
2018-07-28T16:19:18.454Z,94688.91
2018-07-28T16:21:47.867Z,94688.59
2018-07-28T16:24:17.160Z,94687.13
2018-07-28T16:26:47.173Z,94689.04
2018-07-28T16:29:16.519Z,94689.42
2018-07-28T16:31:45.782Z,94687.84
2018-07-28T16:34:15.100Z,94688.35
2018-07-28T16:36:44.426Z,94688.67
2018-07-28T16:39:13.790Z,94686.78
2018-07-28T16:41:43.316Z,94687.63
2018-07-28T16:44:12.632Z,94695.42
2018-07-28T16:46:42.022Z,94695.72
2018-07-28T16:49:11.306Z,94695.98
2018-07-28T16:51:40.663Z,94697.88
2018-07-28T16:54:10.043Z,94701.67
2018-07-28T16:56:39.503Z,94708.39
2018-07-28T16:59:08.923Z,94711.34
2018-07-28T17:01:38.298Z,94712.75
2018-07-28T17:04:07.755Z,94715.42
2018-07-28T17:06:38.253Z,94728.03
2018-07-28T17:09:11.258Z,94730.46
2018-07-28T17:11:40.913Z,94738.03
2018-07-28T17:14:10.382Z,94737.48
2018-07-28T17:16:39.718Z,94742.05
2018-07-28T17:21:30.326Z,94756.27
2018-07-28T17:23:59.518Z,94756.83
2018-07-28T17:26:28.778Z,94769.67
2018-07-28T17:28:58.067Z,94776.70
2018-07-28T17:31:27.303Z,94776.92
2018-07-28T17:33:56.565Z,94775.59
2018-07-28T17:36:25.805Z,94779.02
2018-07-28T17:38:55.039Z,94782.27
2018-07-28T17:41:24.266Z,94792.67
2018-07-28T17:43:53.491Z,94794.59
2018-07-28T17:46:23.947Z,94795.66
2018-07-28T17:48:53.172Z,94800.72
2018-07-28T17:51:22.407Z,94800.56
2018-07-28T17:53:51.642Z,94808.61
2018-07-28T17:56:20.947Z,94812.11
2018-07-28T17:58:50.183Z,94812.11
2018-07-28T18:01:19.426Z,94807.61
2018-07-28T18:03:48.648Z,94811.92
2018-07-28T18:06:17.882Z,94811.07
2018-07-28T18:08:47.098Z,94809.09
2018-07-28T18:11:16.374Z,94805.69
2018-07-28T18:13:45.551Z,94801.00
2018-07-28T18:16:14.803Z,94808.56
2018-07-28T18:18:44.030Z,94808.42
2018-07-28T18:21:13.259Z,94809.67
2018-07-28T18:23:42.490Z,94805.61
2018-07-28T18:26:11.711Z,94808.70
2018-07-28T18:28:40.965Z,94809.23
2018-07-28T18:31:10.203Z,94812.81
2018-07-28T18:33:39.474Z,94822.02
2018-07-28T18:36:08.760Z,94812.91
2018-07-28T18:38:37.976Z,94815.55
2018-07-28T18:41:07.191Z,94818.37
2018-07-28T18:43:36.420Z,94825.59
2018-07-28T18:46:05.737Z,94831.65
2018-07-28T18:48:34.976Z,94837.66
2018-07-28T18:51:04.194Z,94843.14
2018-07-28T18:53:33.460Z,94848.59
2018-07-28T18:56:02.666Z,94847.17
2018-07-28T18:58:31.932Z,94847.66
2018-07-28T19:01:01.152Z,94849.49
2018-07-28T19:03:30.428Z,94848.71
2018-07-28T19:05:59.664Z,94853.00
2018-07-28T19:08:28.892Z,94853.61
2018-07-28T19:10:58.151Z,94856.00
2018-07-28T19:13:32.531Z,94865.00
2018-07-28T19:16:01.756Z,94867.99
2018-07-28T19:18:36.228Z,94863.45
2018-07-28T19:21:05.458Z,94872.67
2018-07-28T19:23:39.918Z,94876.86
2018-07-28T19:26:09.913Z,94873.98
2018-07-28T19:28:44.405Z,94866.42
2018-07-28T19:31:13.648Z,94881.59
2018-07-28T19:33:42.860Z,94889.64
2018-07-28T19:36:17.306Z,94888.77
2018-07-28T19:38:46.635Z,94899.12
2018-07-28T19:41:15.850Z,94901.53
2018-07-28T19:43:45.083Z,94907.17
2018-07-28T19:46:14.309Z,94907.58
2018-07-28T19:48:43.557Z,94913.25
2018-07-28T19:51:12.769Z,94920.02
2018-07-28T19:53:41.990Z,94919.20
2018-07-28T19:56:11.266Z,94926.61
2018-07-28T19:58:40.595Z,94936.35
2018-07-28T20:01:09.975Z,94938.70
2018-07-28T20:03:39.295Z,94944.83
2018-07-28T20:06:08.525Z,94943.69
2018-07-28T20:08:37.748Z,94947.77
2018-07-28T20:11:07.022Z,94948.00
2018-07-28T20:13:36.237Z,94950.83
2018-07-28T20:16:05.627Z,94957.30
2018-07-28T20:18:34.875Z,94954.81
2018-07-28T20:21:04.126Z,94952.25
2018-07-28T20:23:33.339Z,94956.06
2018-07-28T20:26:02.695Z,94957.81
2018-07-28T20:28:31.959Z,94959.30
2018-07-28T20:31:02.260Z,94957.41
2018-07-28T20:33:31.523Z,94957.70
2018-07-28T20:36:00.853Z,94954.14
2018-07-28T20:38:30.306Z,94953.39
2018-07-28T20:40:59.586Z,94952.50
2018-07-28T20:43:28.691Z,94954.44
2018-07-28T20:45:57.917Z,94957.14
2018-07-28T20:48:27.182Z,94961.70
2018-07-28T20:50:56.635Z,94964.56
2018-07-28T20:53:25.998Z,94961.20
2018-07-28T20:55:55.284Z,94958.56
2018-07-28T20:58:24.591Z,94956.81
2018-07-28T21:00:54.103Z,94963.78
2018-07-28T21:03:23.518Z,94962.11
2018-07-28T21:05:53.272Z,94962.00
2018-07-28T21:08:22.582Z,94962.05
2018-07-28T21:10:51.866Z,94969.13
2018-07-28T21:13:21.076Z,94971.10
2018-07-28T21:15:50.404Z,94970.17
2018-07-28T21:18:19.645Z,94974.91
2018-07-28T21:20:49.039Z,94981.38
2018-07-28T21:23:19.297Z,94977.92
2018-07-28T21:25:48.746Z,94987.75
2018-07-28T21:28:17.977Z,94987.39
2018-07-28T21:30:47.210Z,94995.27
2018-07-28T21:33:16.454Z,94996.95
2018-07-28T21:35:45.706Z,94993.30
2018-07-28T21:38:14.938Z,94996.34
2018-07-28T21:40:44.282Z,94994.41
2018-07-28T21:43:13.495Z,94990.44
2018-07-28T21:45:42.842Z,94996.13
2018-07-28T21:48:12.061Z,95002.65
2018-07-28T21:50:41.325Z,95000.78
2018-07-28T21:53:10.582Z,95005.16
2018-07-28T21:55:40.143Z,95006.79
2018-07-28T21:58:09.373Z,94992.95
2018-07-28T22:00:43.842Z,94997.10
2018-07-28T22:03:13.067Z,94999.34
2018-07-28T22:05:42.287Z,95001.73
2018-07-28T22:08:11.523Z,95002.12
2018-07-28T22:10:40.767Z,95002.57
2018-07-28T22:13:09.974Z,95002.63
2018-07-28T22:15:39.256Z,95003.54
2018-07-28T22:18:08.472Z,95005.58
2018-07-28T22:20:37.880Z,95011.45
2018-07-28T22:23:07.140Z,95010.20
2018-07-28T22:25:36.368Z,95010.41
2018-07-28T22:28:05.736Z,95013.73
2018-07-28T22:30:34.967Z,95004.20
2018-07-28T22:33:04.314Z,95006.16
2018-07-28T22:35:33.615Z,95012.92
2018-07-28T22:38:02.820Z,95010.27
2018-07-28T22:40:32.071Z,95013.19
2018-07-28T22:43:01.399Z,95012.56
2018-07-28T22:45:30.402Z,95014.47
2018-07-28T22:47:59.627Z,95007.88
2018-07-28T22:50:28.888Z,95014.16
2018-07-28T22:52:58.143Z,95014.86
2018-07-28T22:55:27.350Z,95014.63
2018-07-28T22:57:56.631Z,95017.02
2018-07-28T23:00:25.930Z,95012.16
2018-07-28T23:02:55.207Z,95011.38
2018-07-28T23:05:24.491Z,95017.53
2018-07-28T23:07:53.730Z,95021.09
2018-07-28T23:10:22.959Z,95022.42
2018-07-28T23:12:52.211Z,95023.41
2018-07-28T23:15:21.415Z,95030.99
2018-07-28T23:17:50.890Z,95023.11
2018-07-28T23:20:21.339Z,95025.36
2018-07-28T23:22:50.567Z,95013.56
2018-07-28T23:25:19.787Z,95024.33
2018-07-28T23:27:49.048Z,95028.23
2018-07-28T23:30:18.275Z,95028.66
2018-07-28T23:32:47.508Z,95032.63
2018-07-28T23:35:16.720Z,95040.73
2018-07-28T23:37:45.954Z,95033.42
2018-07-28T23:40:15.174Z,95034.23
2018-07-28T23:42:44.412Z,95031.45
2018-07-28T23:45:13.651Z,95030.11
2018-07-28T23:47:42.873Z,95036.59
2018-07-28T23:50:12.093Z,95037.64
2018-07-28T23:52:41.342Z,95039.23
2018-07-28T23:55:10.668Z,95036.46
2018-07-28T23:57:39.895Z,95032.99
